createdAt,value
2022-10-11T00:02:02.578Z,11.80
2022-10-11T00:04:29.417Z,10.32
2022-10-11T00:06:56.180Z,11.13
2022-10-11T00:09:22.851Z,12.73
2022-10-11T00:11:49.879Z,12.35
2022-10-11T00:14:16.935Z,10.73
2022-10-11T00:16:44.593Z,11.55
2022-10-11T00:19:11.989Z,12.38
2022-10-11T00:21:39.446Z,12.07
2022-10-11T00:24:06.661Z,11.75
2022-10-11T00:26:33.684Z,11.40
2022-10-11T00:29:00.297Z,13.02
2022-10-11T00:31:26.865Z,14.23
2022-10-11T00:33:55.037Z,12.90
2022-10-11T00:36:22.560Z,13.10
2022-10-11T00:38:49.553Z,11.70
2022-10-11T00:41:16.563Z,11.45
2022-10-11T00:43:44.078Z,13.25
2022-10-11T00:46:13.788Z,11.80
2022-10-11T00:48:46.083Z,11.85
2022-10-11T00:51:21.031Z,11.48
2022-10-11T00:53:50.953Z,12.63
2022-10-11T00:56:27.908Z,12.30
2022-10-11T00:58:56.542Z,13.90
2022-10-11T01:01:23.654Z,10.85
2022-10-11T01:03:50.340Z,11.95
2022-10-11T01:06:17.563Z,12.00
2022-10-11T01:08:44.656Z,12.50
2022-10-11T01:11:15.850Z,11.68
2022-10-11T01:14:02.071Z,11.55
2022-10-11T01:16:42.703Z,12.45
2022-10-11T01:19:24.768Z,12.88
2022-10-11T01:22:48.451Z,12.80
2022-10-11T01:25:36.443Z,12.15
2022-10-11T01:28:08.939Z,10.93
2022-10-11T01:30:37.203Z,12.70
2022-10-11T01:33:35.847Z,11.48
2022-10-11T01:36:27.866Z,12.55
2022-10-11T01:39:03.500Z,12.25
2022-10-11T01:41:39.339Z,13.40
2022-10-11T01:44:08.141Z,11.00
2022-10-11T01:46:36.683Z,12.32
2022-10-11T01:49:04.746Z,12.32
2022-10-11T01:51:35.083Z,10.82
2022-10-11T01:54:23.897Z,11.32
2022-10-11T01:56:56.432Z,11.52
2022-10-11T01:59:40.777Z,12.35
2022-10-11T02:02:32.333Z,13.82
2022-10-11T02:05:05.165Z,10.93
2022-10-11T02:07:36.162Z,10.27
2022-10-11T02:10:20.050Z,11.13
2022-10-11T02:12:54.178Z,12.70
2022-10-11T02:15:23.385Z,11.93
2022-10-11T02:17:55.541Z,10.77
2022-10-11T02:20:26.570Z,10.23
2022-10-11T02:22:59.266Z,11.85
2022-10-11T02:25:29.183Z,11.73
2022-10-11T02:27:59.536Z,11.55
2022-10-11T02:30:26.296Z,11.80
2022-10-11T02:32:54.873Z,11.00
2022-10-11T02:35:26.468Z,10.60
2022-10-11T02:38:05.789Z,10.57
2022-10-11T02:40:35.200Z,10.38
2022-10-11T02:43:08.063Z,12.70
2022-10-11T02:45:57.153Z,11.57
2022-10-11T02:48:27.622Z,11.23
2022-10-11T02:50:56.556Z,9.52
2022-10-11T02:53:24.654Z,9.85
2022-10-11T02:55:53.613Z,11.50
2022-10-11T02:58:20.906Z,10.63
2022-10-11T03:00:48.303Z,10.95
2022-10-11T03:03:15.872Z,10.55
2022-10-11T03:05:43.576Z,10.00
2022-10-11T03:08:13.322Z,11.90
2022-10-11T03:10:40.653Z,9.95
2022-10-11T03:13:07.991Z,10.90
2022-10-11T03:15:34.843Z,10.30
2022-10-11T03:18:01.688Z,13.50
2022-10-11T03:20:28.353Z,12.30
2022-10-11T03:22:55.002Z,12.05
2022-10-11T03:25:22.263Z,10.60
2022-10-11T03:27:48.915Z,12.23
2022-10-11T03:30:18.311Z,11.32
2022-10-11T03:32:45.767Z,11.10
2022-10-11T03:35:12.603Z,10.23
2022-10-11T03:37:39.214Z,11.48
2022-10-11T03:40:08.390Z,11.40
2022-10-11T03:42:35.967Z,11.10
2022-10-11T03:45:05.104Z,10.63
2022-10-11T03:47:32.260Z,10.10
2022-10-11T03:49:58.886Z,11.07
2022-10-11T03:52:25.516Z,10.93
2022-10-11T03:54:52.536Z,10.13
2022-10-11T03:57:19.417Z,9.93
2022-10-11T03:59:46.569Z,10.48
2022-10-11T04:02:13.322Z,9.60
2022-10-11T04:04:39.921Z,10.07
2022-10-11T04:07:06.975Z,10.80
2022-10-11T04:09:33.863Z,10.35
2022-10-11T04:12:01.242Z,9.98
2022-10-11T04:14:27.984Z,9.02
2022-10-11T04:16:58.349Z,9.18
2022-10-11T04:19:26.958Z,10.32
2022-10-11T04:21:53.608Z,11.32
2022-10-11T04:24:20.266Z,9.95
2022-10-11T04:26:46.894Z,9.68
2022-10-11T04:29:13.527Z,11.95
2022-10-11T04:31:40.221Z,11.40
2022-10-11T04:34:07.170Z,9.82
2022-10-11T04:36:34.117Z,11.48
2022-10-11T04:39:01.943Z,9.75
2022-10-11T04:41:29.539Z,11.07
2022-10-11T04:43:56.271Z,11.40
2022-10-11T04:46:23.466Z,10.00
2022-10-11T04:48:50.713Z,10.05
2022-10-11T04:51:18.373Z,10.43
2022-10-11T04:53:45.197Z,10.55
2022-10-11T04:56:12.290Z,11.02
2022-10-11T04:58:41.061Z,10.95
2022-10-11T05:01:08.340Z,11.50
2022-10-11T05:03:35.057Z,11.23
2022-10-11T05:06:05.627Z,11.80
2022-10-11T05:08:33.268Z,11.23
2022-10-11T05:11:02.645Z,10.27
2022-10-11T05:13:30.114Z,9.93
2022-10-11T05:15:57.229Z,10.98
2022-10-11T05:18:24.891Z,12.40
2022-10-11T05:21:15.340Z,13.57
2022-10-11T05:23:42.381Z,13.15
2022-10-11T05:26:09.520Z,14.68
2022-10-11T05:28:36.818Z,13.35
2022-10-11T05:31:03.942Z,13.05
2022-10-11T05:33:31.283Z,12.70
2022-10-11T05:35:58.167Z,12.00
2022-10-11T05:38:24.844Z,14.82
2022-10-11T05:40:52.279Z,14.35
2022-10-11T05:43:19.113Z,14.95
2022-10-11T05:45:46.560Z,14.02
2022-10-11T05:48:13.235Z,14.63
2022-10-11T05:50:40.018Z,14.27
2022-10-11T05:53:07.273Z,14.73
2022-10-11T05:55:39.161Z,14.60
2022-10-11T05:58:06.852Z,16.40
2022-10-11T06:00:36.949Z,16.10
2022-10-11T06:03:05.384Z,16.17
2022-10-11T06:05:32.269Z,15.88
2022-10-11T06:07:58.984Z,15.68
2022-10-11T06:10:26.189Z,18.00
2022-10-11T06:12:53.445Z,16.60
2022-10-11T06:15:20.187Z,18.48
2022-10-11T06:17:47.427Z,18.80
2022-10-11T06:20:14.879Z,22.83
2022-10-11T06:22:41.495Z,23.08
2022-10-11T06:25:08.419Z,25.02
2022-10-11T06:27:35.333Z,26.70
2022-10-11T06:30:01.925Z,26.02
2022-10-11T06:32:29.067Z,22.83
2022-10-11T06:34:55.707Z,20.95
2022-10-11T06:37:22.390Z,16.17
2022-10-11T06:39:50.372Z,17.10
2022-10-11T06:42:17.209Z,17.55
2022-10-11T06:44:43.954Z,18.35
2022-10-11T06:47:10.605Z,16.00
2022-10-11T06:49:37.697Z,15.63
2022-10-11T06:52:05.122Z,15.15
2022-10-11T06:54:31.967Z,15.25
2022-10-11T06:56:58.760Z,13.85
2022-10-11T06:59:25.468Z,14.55
2022-10-11T07:01:52.150Z,16.38
2022-10-11T07:04:18.910Z,15.93
2022-10-11T07:06:45.506Z,15.35
2022-10-11T07:09:12.217Z,15.77
2022-10-11T07:11:38.955Z,14.75
2022-10-11T07:14:07.882Z,14.50
2022-10-11T07:16:36.505Z,16.38
2022-10-11T07:19:05.049Z,14.88
2022-10-11T07:21:33.880Z,13.95
2022-10-11T07:24:01.380Z,12.70
2022-10-11T07:26:32.524Z,12.70
2022-10-11T07:29:04.373Z,13.50
2022-10-11T07:31:31.425Z,13.25
2022-10-11T07:33:58.033Z,13.13
2022-10-11T07:36:25.655Z,12.20
2022-10-11T07:38:52.740Z,12.80
2022-10-11T07:41:19.899Z,13.13
2022-10-11T07:43:47.969Z,11.63
2022-10-11T07:46:14.722Z,12.02
2022-10-11T07:48:41.451Z,12.55
2022-10-11T07:51:11.269Z,12.00
2022-10-11T07:53:42.455Z,10.98
2022-10-11T07:56:12.556Z,9.95
2022-10-11T07:58:40.574Z,10.43
2022-10-11T08:01:09.255Z,10.55
2022-10-11T08:03:36.484Z,10.57
2022-10-11T08:06:08.306Z,9.75
2022-10-11T08:08:36.556Z,9.52
2022-10-11T08:11:03.249Z,9.27
2022-10-11T08:13:30.912Z,9.45
2022-10-11T08:15:58.318Z,9.65
2022-10-11T08:18:25.259Z,10.45
2022-10-11T08:20:52.258Z,9.73
2022-10-11T08:23:19.787Z,9.48
2022-10-11T08:25:48.240Z,8.80
2022-10-11T08:28:17.802Z,9.90
2022-10-11T08:30:53.921Z,9.25
2022-10-11T08:33:23.006Z,8.63
2022-10-11T08:35:50.448Z,9.50
2022-10-11T08:38:18.463Z,8.38
2022-10-11T08:40:55.263Z,8.80
2022-10-11T08:43:34.337Z,9.27
2022-10-11T08:46:03.267Z,8.60
2022-10-11T08:48:30.067Z,9.02
2022-10-11T08:50:57.675Z,7.90
2022-10-11T08:53:40.713Z,8.63
2022-10-11T08:56:09.916Z,7.53
2022-10-11T08:58:47.011Z,8.40
2022-10-11T09:01:18.915Z,8.27
2022-10-11T09:03:48.067Z,8.13
2022-10-11T09:06:23.661Z,7.60
2022-10-11T09:09:15.011Z,7.97
2022-10-11T09:11:52.371Z,8.18
2022-10-11T09:14:24.592Z,8.40
2022-10-11T09:17:22.004Z,8.30
2022-10-11T09:20:07.746Z,7.63
2022-10-11T09:22:56.172Z,8.10
2022-10-11T09:25:53.297Z,8.63
2022-10-11T09:28:31.069Z,7.45
2022-10-11T09:30:58.912Z,7.55
2022-10-11T09:33:36.970Z,7.85
2022-10-11T09:36:16.685Z,8.05
2022-10-11T09:39:06.865Z,8.00
2022-10-11T09:41:41.586Z,8.88
2022-10-11T09:44:12.598Z,9.05
2022-10-11T09:46:42.456Z,8.18
2022-10-11T09:49:16.061Z,8.50
2022-10-11T09:51:47.451Z,8.40
2022-10-11T09:54:14.137Z,8.55
2022-10-11T09:56:45.745Z,8.00
2022-10-11T09:59:15.247Z,9.05
2022-10-11T10:01:41.950Z,8.02
2022-10-11T10:04:14.987Z,8.07
2022-10-11T10:06:41.688Z,7.75
2022-10-11T10:09:30.540Z,8.07
2022-10-11T10:11:58.326Z,8.15
2022-10-11T10:14:28.380Z,8.00
2022-10-11T10:17:04.806Z,8.63
2022-10-11T10:19:53.088Z,9.80
2022-10-11T10:22:30.291Z,9.75
2022-10-11T10:25:00.369Z,9.18
2022-10-11T10:27:29.825Z,9.23
2022-10-11T10:30:10.314Z,8.95
2022-10-11T10:32:55.711Z,9.32
2022-10-11T10:35:42.547Z,9.00
2022-10-11T10:38:25.527Z,9.45
2022-10-11T10:40:58.972Z,8.48
2022-10-11T10:43:29.993Z,7.70
2022-10-11T10:46:28.655Z,7.75
2022-10-11T10:52:37.633Z,8.50
2022-10-11T10:55:33.407Z,9.60
2022-10-11T10:58:15.049Z,10.65
2022-10-11T11:03:50.718Z,9.35
2022-10-11T11:06:38.019Z,9.63
2022-10-11T11:09:07.665Z,9.75
2022-10-11T11:11:56.072Z,11.18
2022-10-11T11:15:00.221Z,10.73
2022-10-11T11:17:41.732Z,10.32
2022-10-11T11:20:11.282Z,11.23
2022-10-11T11:23:05.482Z,10.30
2022-10-11T11:25:52.633Z,11.30
2022-10-11T11:28:28.020Z,10.57
2022-10-11T11:31:32.094Z,11.45
2022-10-11T11:34:20.343Z,16.30
2022-10-11T11:36:49.851Z,14.82
2022-10-11T11:39:24.132Z,14.40
2022-10-11T11:41:58.075Z,14.65
2022-10-11T11:44:42.582Z,15.10
2022-10-11T11:47:34.033Z,15.20
2022-10-11T11:50:27.309Z,15.40
2022-10-11T11:53:01.169Z,14.52
2022-10-11T11:55:36.649Z,13.85
2022-10-11T11:58:09.353Z,12.25
2022-10-11T12:01:05.283Z,13.13
2022-10-11T12:03:41.596Z,13.23
2022-10-11T12:06:17.161Z,13.30
2022-10-11T12:08:48.628Z,13.55
2022-10-11T12:11:26.333Z,13.00
2022-10-11T12:13:55.037Z,12.40
2022-10-11T12:16:22.853Z,12.50
2022-10-11T12:19:02.977Z,13.18
2022-10-11T12:21:40.997Z,12.35
2022-10-11T12:24:20.390Z,14.15
2022-10-11T12:26:49.184Z,13.32
2022-10-11T12:29:19.093Z,12.93
2022-10-11T12:31:49.722Z,13.10
2022-10-11T12:37:33.450Z,12.70
2022-10-11T12:40:00.393Z,13.07
2022-10-11T12:42:35.434Z,11.98
2022-10-11T12:45:11.219Z,12.20
2022-10-11T12:47:53.611Z,12.50
2022-10-11T12:50:27.595Z,12.57
2022-10-11T12:53:09.959Z,12.10
2022-10-11T12:55:46.965Z,12.50
2022-10-11T12:58:26.555Z,12.43
2022-10-11T13:00:55.166Z,12.60
2022-10-11T13:03:41.056Z,12.40
2022-10-11T13:06:27.060Z,10.18
2022-10-11T13:09:02.761Z,10.68
2022-10-11T13:11:58.996Z,9.63
2022-10-11T13:14:27.646Z,10.95
2022-10-11T13:17:03.647Z,10.90
2022-10-11T13:19:32.635Z,10.90
2022-10-11T13:22:03.160Z,11.10
2022-10-11T13:24:37.948Z,11.38
2022-10-11T13:27:05.669Z,10.80
2022-10-11T13:29:41.478Z,10.23
2022-10-11T13:32:14.804Z,11.27
2022-10-11T13:34:45.301Z,10.83
2022-10-11T13:37:21.566Z,11.07
2022-10-11T13:39:51.435Z,10.48
2022-10-11T13:42:20.303Z,11.15
2022-10-11T13:44:47.435Z,10.40
2022-10-11T13:47:17.409Z,10.27
2022-10-11T13:49:46.505Z,10.30
2022-10-11T13:52:22.981Z,10.57
2022-10-11T13:54:58.951Z,10.93
2022-10-11T13:57:33.550Z,10.50
2022-10-11T14:00:02.573Z,10.43
2022-10-11T14:02:30.245Z,10.73
2022-10-11T14:04:57.625Z,10.23
2022-10-11T14:07:38.475Z,11.40
2022-10-11T14:10:06.599Z,9.73
2022-10-11T14:12:39.671Z,10.30
2022-10-11T14:15:24.074Z,10.27
2022-10-11T14:20:21.740Z,9.98
2022-10-11T14:22:52.979Z,10.25
2022-10-11T14:25:20.754Z,11.23
2022-10-11T14:27:48.352Z,9.30
2022-10-11T14:30:27.368Z,10.30
2022-10-11T14:32:56.644Z,10.13
2022-10-11T14:35:28.857Z,9.45
2022-10-11T14:37:55.871Z,9.52
2022-10-11T14:40:27.048Z,10.35
2022-10-11T14:42:54.370Z,10.68
2022-10-11T14:45:21.426Z,10.63
2022-10-11T14:47:49.157Z,11.00
2022-10-11T14:50:40.789Z,10.43
2022-10-11T14:53:08.910Z,10.63
2022-10-11T14:55:37.815Z,10.27
2022-10-11T14:58:05.649Z,11.30
2022-10-11T15:00:33.079Z,11.27
2022-10-11T15:03:00.407Z,10.25
2022-10-11T15:05:33.870Z,10.95
2022-10-11T15:08:05.173Z,19.13
2022-10-11T15:10:39.421Z,19.95
2022-10-11T15:13:07.397Z,14.93
2022-10-11T15:15:36.941Z,19.70
2022-10-11T15:18:07.281Z,20.50
2022-10-11T15:20:39.758Z,21.52
2022-10-11T15:23:09.669Z,42.45
2022-10-11T15:25:38.338Z,23.15
2022-10-11T15:28:06.085Z,22.98
2022-10-11T15:30:41.111Z,23.45
2022-10-11T15:33:08.613Z,25.23
2022-10-11T15:35:35.220Z,40.33
2022-10-11T15:38:02.036Z,21.77
2022-10-11T15:40:36.969Z,28.85
2022-10-11T15:43:04.639Z,40.97
2022-10-11T15:45:31.713Z,39.95
2022-10-11T15:47:58.812Z,30.30
2022-10-11T15:50:34.765Z,37.67
2022-10-11T15:53:05.603Z,22.27
2022-10-11T15:55:34.536Z,15.25
2022-10-11T15:58:01.730Z,15.63
2022-10-11T16:00:29.091Z,17.17
2022-10-11T16:02:57.462Z,20.05
2022-10-11T16:05:26.405Z,18.70
2022-10-11T16:07:53.896Z,25.52
2022-10-11T16:10:21.407Z,27.45
2022-10-11T16:12:49.084Z,30.08
2022-10-11T16:15:16.929Z,21.85
2022-10-11T16:17:43.636Z,35.05
2022-10-11T16:20:10.354Z,30.23
2022-10-11T16:22:37.322Z,29.58
2022-10-11T16:25:05.007Z,29.92
2022-10-11T16:27:32.550Z,31.27
2022-10-11T16:30:01.004Z,28.65
2022-10-11T16:32:28.113Z,29.27
2022-10-11T16:34:54.969Z,25.65
2022-10-11T16:37:21.660Z,23.77
2022-10-11T16:39:48.260Z,24.00
2022-10-11T16:42:15.074Z,23.42
2022-10-11T16:44:41.722Z,22.33
2022-10-11T16:47:08.428Z,37.05
2022-10-11T16:49:35.518Z,24.80
2022-10-11T16:52:03.928Z,20.20
2022-10-11T16:54:32.038Z,33.40
2022-10-11T16:56:59.621Z,30.02
2022-10-11T16:59:27.001Z,25.58
2022-10-11T17:01:54.083Z,26.17
2022-10-11T17:04:21.284Z,27.73
2022-10-11T17:06:48.054Z,26.38
2022-10-11T17:09:15.947Z,31.90
2022-10-11T17:11:43.495Z,31.95
2022-10-11T17:14:12.780Z,34.60
2022-10-11T17:16:39.740Z,32.10
2022-10-11T17:19:20.219Z,30.05
2022-10-11T17:21:46.827Z,26.27
2022-10-11T17:24:13.530Z,28.83
2022-10-11T17:26:40.361Z,29.15
2022-10-11T17:29:07.017Z,26.88
2022-10-11T17:31:33.846Z,26.80
2022-10-11T17:34:01.514Z,27.45
2022-10-11T17:36:36.187Z,28.23
2022-10-11T17:39:09.545Z,27.40
2022-10-11T17:41:36.723Z,26.60
2022-10-11T17:44:04.413Z,25.38
2022-10-11T17:46:34.236Z,27.75
2022-10-11T17:49:04.857Z,27.35
2022-10-11T17:51:32.891Z,19.23
2022-10-11T17:53:59.617Z,22.70
2022-10-11T17:56:30.357Z,23.30
2022-10-11T17:58:59.618Z,31.20
2022-10-11T18:01:28.482Z,36.53
2022-10-11T18:04:04.266Z,47.17
2022-10-11T18:06:33.955Z,27.13
2022-10-11T18:09:02.493Z,31.88
2022-10-11T18:11:30.304Z,31.50
2022-10-11T18:13:56.931Z,42.17
2022-10-11T18:16:28.764Z,26.58
2022-10-11T18:18:59.577Z,40.50
2022-10-11T18:21:31.356Z,31.05
2022-10-11T18:24:02.822Z,32.45
2022-10-11T18:26:30.616Z,27.90
2022-10-11T18:28:58.585Z,30.90
2022-10-11T18:31:27.926Z,29.13
2022-10-11T18:33:55.379Z,42.10
2022-10-11T18:36:24.494Z,34.03
2022-10-11T18:38:56.918Z,35.05
2022-10-11T18:41:30.631Z,34.40
2022-10-11T18:44:00.594Z,33.40
2022-10-11T18:46:27.957Z,31.13
2022-10-11T18:48:56.478Z,33.53
2022-10-11T18:51:32.408Z,32.13
2022-10-11T18:53:59.490Z,32.05
2022-10-11T18:56:28.167Z,38.00
2022-10-11T18:58:56.836Z,49.50
2022-10-11T19:01:29.150Z,46.53
2022-10-11T19:03:57.753Z,45.20
2022-10-11T19:06:27.866Z,43.55
2022-10-11T19:08:59.234Z,43.47
2022-10-11T19:11:25.903Z,42.95
2022-10-11T19:14:06.641Z,43.78
2022-10-11T19:16:35.381Z,39.70
2022-10-11T19:19:02.483Z,41.63
2022-10-11T19:21:29.303Z,35.83
2022-10-11T19:23:56.918Z,43.85
2022-10-11T19:26:30.134Z,43.85
2022-10-11T19:28:59.412Z,46.15
2022-10-11T19:31:26.665Z,51.22
2022-10-11T19:33:54.007Z,49.50
2022-10-11T19:36:21.089Z,46.55
2022-10-11T19:38:49.450Z,57.75
2022-10-11T19:41:18.719Z,49.33
2022-10-11T19:43:46.701Z,36.70
2022-10-11T19:46:20.196Z,34.65
2022-10-11T19:48:51.607Z,36.03
2022-10-11T19:51:22.089Z,30.20
2022-10-11T19:53:54.391Z,26.77
2022-10-11T19:56:21.155Z,31.50
2022-10-11T19:58:47.817Z,33.25
2022-10-11T20:01:18.021Z,30.13
2022-10-11T20:03:50.661Z,28.77
2022-10-11T20:06:20.180Z,26.98
2022-10-11T20:08:59.819Z,26.20
2022-10-11T20:11:31.719Z,23.33
2022-10-11T20:13:58.596Z,30.20
2022-10-11T20:16:27.928Z,26.52
2022-10-11T20:18:58.584Z,26.25
2022-10-11T20:21:27.906Z,24.35
2022-10-11T20:23:58.829Z,29.55
2022-10-11T20:26:27.210Z,26.50
2022-10-11T20:28:56.186Z,21.52
2022-10-11T20:31:33.251Z,25.17
2022-10-11T20:34:02.275Z,21.52
2022-10-11T20:36:30.268Z,23.42
2022-10-11T20:38:58.846Z,24.80
2022-10-11T20:41:28.532Z,24.38
2022-10-11T20:43:57.669Z,23.15
2022-10-11T20:46:27.083Z,21.67
2022-10-11T20:49:01.931Z,21.02
2022-10-11T20:51:30.782Z,24.10
2022-10-11T20:53:58.866Z,21.30
2022-10-11T20:56:25.700Z,21.13
2022-10-11T20:58:55.029Z,21.10
2022-10-11T21:01:28.440Z,20.65
2022-10-11T21:03:57.772Z,24.95
2022-10-11T21:06:24.706Z,23.02
2022-10-11T21:08:51.470Z,21.02
2022-10-11T21:11:18.467Z,22.27
2022-10-11T21:13:45.215Z,20.92
2022-10-11T21:16:16.491Z,21.13
2022-10-11T21:18:43.863Z,23.63
2022-10-11T21:21:13.430Z,22.80
2022-10-11T21:23:40.591Z,24.08
2022-10-11T21:26:10.454Z,24.25
2022-10-11T21:28:37.930Z,29.65
2022-10-11T21:31:08.482Z,29.58
2022-10-11T21:33:35.985Z,29.60
2022-10-11T21:36:11.044Z,26.48
2022-10-11T21:38:38.522Z,34.22
2022-10-11T21:41:07.102Z,26.70
2022-10-11T21:43:36.017Z,31.48
2022-10-11T21:46:24.964Z,26.25
2022-10-11T21:48:59.425Z,25.65
2022-10-11T21:51:30.201Z,24.88
2022-10-11T21:53:59.556Z,29.05
2022-10-11T21:56:27.334Z,28.25
2022-10-11T21:58:54.266Z,25.02
2022-10-11T22:01:21.527Z,25.83
2022-10-11T22:03:49.007Z,26.70
2022-10-11T22:06:16.765Z,24.38
2022-10-11T22:08:43.466Z,24.15
2022-10-11T22:11:10.712Z,25.15
2022-10-11T22:13:38.469Z,27.23
2022-10-11T22:16:10.905Z,31.35
2022-10-11T22:18:38.747Z,28.35
2022-10-11T22:21:16.330Z,27.13
2022-10-11T22:23:46.040Z,24.65
2022-10-11T22:26:22.086Z,25.35
2022-10-11T22:28:49.440Z,27.33
2022-10-11T22:31:19.368Z,26.65
2022-10-11T22:33:46.215Z,27.33
2022-10-11T22:36:13.975Z,27.92
2022-10-11T22:38:42.238Z,27.58
2022-10-11T22:41:09.924Z,28.40
2022-10-11T22:43:36.989Z,26.02
2022-10-11T22:46:05.043Z,24.60
2022-10-11T22:48:31.876Z,23.33
2022-10-11T22:50:59.961Z,21.00
2022-10-11T22:53:26.569Z,20.45
2022-10-11T22:55:53.214Z,18.90
2022-10-11T22:58:19.936Z,20.50
2022-10-11T23:00:46.544Z,19.65
2022-10-11T23:03:17.010Z,23.27
2022-10-11T23:05:43.931Z,21.02
2022-10-11T23:08:10.625Z,19.33
2022-10-11T23:10:40.793Z,20.17
2022-10-11T23:13:07.558Z,19.13
2022-10-11T23:15:34.262Z,21.02
2022-10-11T23:18:01.006Z,20.00
2022-10-11T23:20:27.999Z,21.00
2022-10-11T23:22:54.745Z,20.23
2022-10-11T23:25:21.487Z,17.80
2022-10-11T23:27:48.264Z,19.30
2022-10-11T23:30:15.348Z,19.38
2022-10-11T23:32:42.134Z,17.52
2022-10-11T23:35:09.003Z,19.15
2022-10-11T23:37:35.759Z,20.77
2022-10-11T23:40:02.807Z,18.80
2022-10-11T23:42:29.471Z,20.60
2022-10-11T23:44:56.105Z,21.08
2022-10-11T23:47:22.820Z,19.85
2022-10-11T23:49:49.547Z,20.33
2022-10-11T23:52:16.205Z,19.10
2022-10-11T23:54:43.040Z,18.08
2022-10-11T23:57:09.838Z,21.67
2022-10-11T23:59:36.397Z,19.83
